Date,TemperatureHighF,TemperatureAvgF,TemperatureLowF,DewpointHighF,DewpointAvgF,DewpointLowF,HumidityHigh,HumidityAvg,HumidityLow,PressureMaxIn,PressureMinIn,WindSpeedMaxMPH,WindSpeedAvgMPH,GustSpeedMaxMPH,PrecipitationSumIn
2013-1-1,25,20,17,18,12,9,81,70,60,30.19,30.05,5,2,13,0.00
2013-1-2,24,21,16,20,15,11,84,80,77,30.21,30.11,5,2,11,0.00
2013-1-3,28,22,16,24,18,10,86,81,74,30.18,30.07,6,3,12,0.00
2013-1-4,33,28,23,24,21,18,84,77,66,30.20,30.00,9,5,21,0.00
2013-1-5,34,26,17,29,22,15,94,85,72,30.30,30.02,4,2,9,0.00
2013-1-6,34,32,30,31,29,25,94,86,79,30.28,29.90,5,3,12,0.05
2013-1-7,36,30,27,26,23,21,85,75,59,30.36,30.14,7,3,17,0.00
2013-1-8,37,30,24,27,23,20,84,78,67,30.25,30.15,4,2,9,0.00
2013-1-9,35,32,31,29,27,26,81,79,77,30.15,30.05,5,3,12,0.00
2013-1-14,26,20,16,22,16,13,90,81,72,30.46,30.06,6,3,15,0.00
2013-1-15,27,19,11,18,14,9,92,83,67,30.48,30.21,2,0,6,0.00
2013-1-16,33,25,14,28,18,12,94,76,52,30.20,29.82,7,3,17,0.00
2013-1-17,32,26,16,28,18,6,85,74,59,30.34,29.97,7,3,16,0.00
2013-1-18,35,23,10,22,14,7,89,71,51,30.45,29.95,7,3,20,0.00
2013-1-19,44,39,35,34,29,23,73,67,60,29.94,29.60,7,5,21,0.01
2013-1-20,12,11,11,3,3,3,70,69,68,30.19,30.18,1,1,3,0.00
2013-1-21,13,10,2,10,2,-6,86,71,58,30.17,30.00,7,4,17,0.00
2013-1-22,7,2,-3,0,-6,-11,78,68,53,30.34,30.16,7,4,15,0.00
2013-1-23,16,8,-1,11,3,-5,89,80,66,30.34,30.13,4,2,11,0.00
2013-1-24,13,7,2,10,1,-2,89,77,53,30.66,30.19,2,0,5,0.00
2013-1-25,21,15,9,14,10,2,89,81,71,30.56,30.05,4,1,8,0.00
2013-1-26,25,19,13,16,14,9,89,80,65,30.48,30.08,4,2,9,0.00
2013-1-27,28,21,12,25,15,9,92,79,58,30.50,30.15,5,2,11,0.00
2013-1-28,42,36,28,41,34,26,97,95,91,30.16,29.86,5,3,11,0.33
2013-1-29,57,45,31,54,43,30,97,95,89,30.03,29.45,6,3,18,0.97
2013-1-30,57,45,30,54,43,26,100,94,84,29.42,29.09,9,3,20,0.85
2013-1-31,28,20,14,24,14,9,89,79,66,29.90,29.25,11,7,23,0.00
2013-2-1,17,13,8,11,7,1,88,76,62,30.28,29.91,7,4,15,0.00
2013-2-2,19,13,3,15,8,0,88,82,74,30.22,30.02,5,2,12,0.00
2013-2-3,19,10,-2,14,5,-4,89,81,69,30.06,29.90,7,2,13,0.00
2013-2-4,21,16,9,15,11,4,87,81,74,30.07,29.93,2,0,6,0.00
2013-2-5,26,18,5,24,14,2,93,85,67,30.01,29.83,4,2,12,0.00
2013-2-6,29,21,10,19,14,7,91,75,60,30.31,30.02,3,1,8,0.00
2013-2-7,36,29,24,27,22,16,93,73,65,30.30,29.93,6,2,13,0.01
2013-2-8,27,23,13,26,20,10,95,89,71,30.39,29.86,5,2,10,0.00
2013-2-9,31,16,-2,19,10,-5,92,78,51,30.50,30.31,4,1,9,0.00
2013-2-10,39,29,17,36,23,14,92,79,57,30.31,29.68,6,3,15,0.35
2013-2-11,43,36,31,41,31,25,94,80,68,29.84,29.53,11,7,23,0.04
2013-2-12,31,28,26,25,22,21,82,78,71,30.05,29.85,7,4,16,0.00
2013-2-13,37,29,25,27,23,21,87,79,65,29.95,29.75,4,2,10,0.00
2013-2-14,39,33,28,33,29,25,91,85,77,29.85,29.66,9,4,20,0.00
2013-2-15,30,24,19,24,16,12,83,71,58,30.15,29.86,7,4,13,0.00
2013-2-16,23,18,15,17,12,6,90,78,55,30.13,30.02,5,1,11,0.00
2013-2-17,22,14,7,11,6,2,86,70,49,30.24,30.11,4,1,11,0.00
2013-2-18,45,30,13,36,19,6,75,65,54,30.24,29.58,7,4,16,0.00
2013-2-19,46,28,16,39,23,10,91,81,69,29.92,29.38,11,8,26,0.13
2013-2-20,21,18,14,14,11,8,81,73,64,30.29,29.93,8,6,19,0.00
2013-2-21,22,19,16,17,12,10,89,77,65,30.43,30.28,6,2,12,0.00
2013-2-22,32,26,20,30,23,17,95,89,81,30.31,29.90,6,3,13,0.00
2013-2-23,32,28,24,30,23,19,91,80,68,29.93,29.88,6,4,12,0.00
2013-2-24,36,27,21,27,22,19,92,83,65,30.18,29.91,5,2,10,0.00
2013-2-25,40,30,20,26,23,18,91,75,54,30.26,30.13,3,0,7,0.01
2013-2-26,34,30,25,30,25,21,96,84,71,30.16,29.56,9,5,20,0.16
2013-2-27,35,33,31,34,31,30,96,95,91,29.58,29.49,3,1,9,0.28
2013-2-28,34,31,27,31,28,23,97,90,81,30.01,29.57,3,1,10,0.10
2013-3-1,27,24,22,23,20,18,86,82,77,30.16,30.01,2,1,11,0.00
2013-3-2,24,22,18,19,17,15,89,82,78,30.14,30.10,3,1,6,0.00
2013-3-3,21,17,11,16,12,9,90,81,75,30.10,30.07,3,2,8,0.00
2013-3-4,28,19,10,17,13,8,89,77,55,30.20,30.09,3,1,8,0.00
2013-3-5,34,24,15,24,19,12,89,80,65,30.18,29.90,6,2,16,0.00
2013-3-6,35,30,24,28,26,22,93,84,72,30.24,29.94,3,1,9,0.03
2013-3-7,33,29,22,28,24,18,94,81,62,30.43,30.23,4,1,8,0.01
2013-3-8,41,29,17,27,22,14,92,76,57,30.54,30.43,3,1,7,0.00
2013-3-9,44,34,24,32,27,22,92,75,57,30.44,30.04,5,2,10,0.00
2013-3-10,58,49,38,43,38,31,80,65,53,30.03,29.78,5,2,15,0.00
2013-3-11,55,48,36,47,43,32,95,82,53,29.79,29.45,7,4,18,0.32
2013-3-12,37,33,29,32,27,23,90,81,66,29.91,29.65,7,4,17,0.00
2013-3-13,31,27,22,26,19,14,92,72,51,30.22,29.88,8,5,19,0.00
2013-3-14,38,29,21,21,18,14,81,64,47,30.28,30.09,5,3,10,0.00
2013-3-15,38,33,29,32,28,17,95,82,58,30.09,29.87,6,3,13,0.01
2013-3-16,32,27,24,31,24,21,95,87,76,30.05,29.82,5,1,12,0.01
2013-3-17,30,24,17,22,14,9,88,68,47,30.32,30.05,5,2,11,0.00
2013-3-18,33,27,18,31,22,12,95,83,73,30.24,29.59,7,3,15,0.00
2013-3-19,33,24,21,30,19,14,90,79,68,29.94,29.61,11,6,21,0.00
2013-3-20,25,22,15,15,13,10,79,69,60,29.97,29.92,7,5,17,0.00
2013-3-21,29,23,14,24,18,10,88,80,70,29.97,29.88,7,4,14,0.00
2013-3-22,36,28,23,24,20,16,82,71,60,30.05,29.96,5,3,11,0.01
2013-3-23,34,30,24,24,22,20,85,75,65,30.14,30.05,3,1,7,0.01
2013-3-24,36,28,20,27,22,18,93,80,55,30.10,29.72,7,2,15,0.00
2013-3-25,37,33,29,29,26,23,79,75,66,29.95,29.65,5,2,12,0.00
2013-3-26,42,35,31,32,29,26,87,79,62,30.13,29.94,5,2,11,0.00
2013-3-27,44,36,29,30,26,24,84,69,50,30.22,30.12,8,4,15,0.00
2013-3-28,50,38,29,28,25,24,82,62,37,30.29,30.22,5,3,12,0.00
2013-3-29,50,38,27,25,23,21,76,56,32,30.30,30.22,4,2,9,0.00
2013-3-30,54,41,26,29,22,16,83,51,23,30.23,29.92,7,2,15,0.00
2013-3-31,55,45,39,41,35,28,89,68,47,29.94,29.61,9,4,19,0.02
2013-4-1,40,29,24,31,16,11,90,60,39,30.12,29.69,8,5,16,0.00
2013-4-2,39,29,20,18,14,12,84,57,34,30.28,30.11,8,4,19,0.00
2013-4-3,40,30,20,17,14,10,75,54,34,30.46,30.27,4,1,12,0.00
2013-4-4,55,41,27,23,17,14,63,41,22,30.38,29.95,6,3,13,0.00
2013-4-5,46,39,32,30,22,15,89,52,30,30.22,29.96,4,1,8,0.00
2013-4-6,50,38,28,24,21,15,76,52,34,30.25,29.75,7,4,18,0.00
2013-4-7,56,46,33,46,35,23,85,67,34,30.04,29.58,10,5,20,0.00
2013-4-8,59,41,30,52,38,27,95,87,65,30.05,29.70,10,3,26,0.36
2013-4-9,48,42,39,44,40,38,96,93,79,30.10,29.90,4,2,12,1.04
2013-4-10,41,38,36,39,37,32,96,95,87,30.04,29.90,6,2,13,0.92
2013-4-11,36,35,34,34,33,32,95,93,87,30.04,29.69,9,6,19,0.65
2013-4-12,42,36,32,37,34,31,96,91,78,29.76,29.56,6,2,13,0.33
2013-4-13,40,37,33,37,30,25,95,78,58,29.99,29.75,9,5,20,0.06
2013-4-14,47,38,28,36,31,26,92,75,61,30.12,29.94,4,2,11,0.01
2013-4-15,67,55,40,54,45,33,89,70,56,29.96,29.84,7,3,16,0.01
2013-4-16,58,52,43,54,41,37,94,71,48,30.11,29.86,7,4,13,0.14
2013-4-17,57,57,57,37,37,37,48,48,48,30.11,30.11,4,4,9,0.14
2013-4-18,57,57,57,37,37,37,48,48,48,30.11,30.11,4,4,9,0.14
2013-4-19,57,57,57,37,37,37,48,48,48,30.11,30.11,4,4,9,0.14
2013-4-20,57,57,57,37,37,37,48,48,48,30.11,30.11,4,4,9,0.14
2013-5-7,76,64,50,53,46,38,74,55,35,30.06,29.97,3,1,10,0.00
2013-5-8,83,67,50,51,47,42,85,54,25,30.02,29.91,2,0,6,0.00
2013-5-9,80,68,54,54,50,44,86,57,28,29.95,29.86,2,1,6,0.00
2013-5-10,70,51,40,57,47,39,95,88,50,29.90,29.75,2,1,8,0.50
2013-5-11,62,46,38,47,40,33,95,83,53,29.90,29.71,7,2,17,0.05
2013-5-12,45,39,33,34,30,24,87,70,54,30.10,29.86,7,4,17,0.00
2013-5-13,53,41,30,32,26,22,82,57,31,30.19,30.10,4,1,11,1.89
2013-5-14,75,56,42,52,39,29,76,53,37,30.11,29.70,3,1,9,0.00
2013-5-15,78,68,54,57,49,43,82,54,31,29.78,29.54,6,3,15,0.00
2013-5-16,83,66,52,48,44,38,77,48,24,30.04,29.77,2,1,7,0.00
2013-5-17,68,57,45,46,42,38,79,58,42,30.15,30.02,2,1,6,0.00
2013-5-18,81,65,53,50,46,41,74,51,27,30.16,30.02,2,1,7,0.00
2013-5-19,87,71,53,62,54,45,82,57,36,30.03,29.85,2,0,5,0.00
2013-5-20,90,74,64,69,63,60,96,74,43,29.90,29.72,5,1,20,0.13
2013-5-21,81,72,65,66,62,59,96,73,49,29.79,29.68,4,1,12,0.00
2013-5-22,76,67,62,65,62,60,95,84,58,29.71,29.58,3,1,10,0.09
2013-5-23,62,50,42,60,49,40,96,94,92,30.16,29.65,2,1,8,0.52
2013-5-24,53,44,36,42,38,34,97,79,55,30.39,30.15,2,0,6,0.00
2013-5-25,63,50,34,41,37,32,96,66,35,30.43,30.30,2,0,5,0.00
2013-5-26,68,53,37,42,37,34,95,60,30,30.37,30.24,2,0,6,0.00
2013-5-27,69,53,42,49,41,29,93,65,33,30.26,30.01,2,1,7,0.00
2013-5-28,71,60,51,69,58,48,97,96,90,30.02,29.77,2,0,7,2.12
2013-5-29,79,71,61,68,65,60,100,81,65,29.96,29.74,4,1,15,0.79
2013-5-30,87,74,64,72,66,61,94,78,55,30.01,29.91,4,1,11,0.05
2013-5-31,78,73,68,68,65,49,90,78,44,29.95,29.81,4,1,11,0.07
2013-6-1,78,70,63,66,64,61,96,81,62,29.83,29.65,4,1,9,0.10
2013-6-2,67,61,50,62,54,41,88,78,71,30.00,29.61,5,2,9,0.00
2013-6-3,66,53,39,47,41,37,94,67,41,30.09,29.98,3,1,9,0.00
2013-6-4,72,58,44,47,44,39,94,62,38,30.20,30.08,1,0,7,0.00
2013-6-5,74,60,51,51,44,38,83,56,31,30.19,30.00,2,0,7,0.03
2013-6-6,69,59,52,54,50,47,89,72,54,30.03,29.87,2,1,6,0.04
2013-6-7,63,55,48,53,50,46,95,83,66,29.93,29.88,1,0,6,0.00
2013-6-8,71,61,50,54,52,48,95,74,50,30.06,29.91,1,0,4,0.00
2013-6-9,77,66,55,59,54,52,91,68,51,30.10,29.93,3,1,11,0.00
2013-6-10,73,65,58,67,61,51,97,88,57,29.95,29.72,2,0,6,0.84
2013-6-11,78,69,61,67,63,60,97,83,62,29.88,29.77,3,1,6,0.01
2013-6-12,76,67,60,67,64,58,97,88,70,29.91,29.64,2,0,5,0.08
2013-6-13,78,68,60,65,60,56,97,77,49,29.92,29.59,2,1,8,1.25
2013-6-14,76,65,56,59,53,47,93,68,37,30.08,29.91,2,0,5,0.00
2013-6-15,76,66,56,63,57,49,88,74,56,30.06,29.88,3,0,7,0.00
2013-6-16,80,70,63,66,61,54,96,76,46,29.89,29.73,4,2,8,0.30
2013-6-17,85,69,58,62,58,55,94,72,42,29.94,29.80,2,1,8,0.05
2013-6-18,72,61,51,58,49,41,96,67,35,30.08,29.90,2,1,8,0.02
2013-6-19,77,61,43,54,45,40,91,60,31,30.18,30.08,2,0,6,0.00
2013-6-20,83,67,53,57,52,48,92,63,32,30.20,30.12,2,0,4,0.00
2013-6-21,85,71,57,66,59,53,85,67,49,30.19,30.01,2,0,4,0.00
2013-6-22,89,77,65,71,66,57,91,70,46,30.05,29.93,3,1,7,0.01
2013-6-23,90,79,69,70,68,64,96,71,44,30.01,29.92,3,1,7,0.00
2013-6-24,88,76,68,70,68,64,95,75,53,30.01,29.88,4,1,10,0.21
2013-6-25,78,71,66,71,67,64,97,89,72,29.93,29.80,3,1,7,0.37
2013-6-26,85,74,64,71,68,63,97,81,60,29.84,29.72,2,0,6,0.00
2013-6-27,86,72,65,72,67,64,96,86,59,29.74,29.61,2,0,9,0.30
2013-6-28,77,67,63,66,64,62,100,90,65,29.64,29.51,3,0,6,0.10
2013-6-29,76,67,61,63,60,57,97,79,58,29.73,29.53,2,0,8,0.00
2013-6-30,81,68,57,63,57,45,91,71,48,29.96,29.72,2,0,9,0.00
2013-7-1,70,61,53,58,52,45,89,72,52,30.09,29.96,2,0,7,0.03
2013-7-2,77,65,55,61,57,51,91,75,56,30.08,30.02,2,0,7,0.00
2013-7-3,84,71,58,68,63,56,94,76,54,30.08,30.01,2,0,6,0.00
2013-7-4,81,71,64,66,62,57,95,74,47,30.10,30.04,2,1,6,0.00
2013-7-5,86,74,64,66,62,59,89,68,46,30.09,30.01,1,0,4,0.00
2013-7-6,88,75,66,70,67,65,94,78,50,30.08,29.95,1,0,5,0.00
2013-7-7,81,73,68,72,68,66,96,86,66,30.00,29.92,1,0,4,0.34
2013-7-8,82,73,68,74,69,66,94,86,76,29.99,29.93,3,0,8,0.02
2013-7-9,89,75,68,73,69,66,96,84,57,29.96,29.83,4,0,9,0.12
2013-7-10,86,76,64,73,68,57,97,76,52,29.92,29.72,4,2,10,0.01
2013-7-11,79,66,56,59,56,54,94,72,45,30.07,29.92,2,0,6,0.00
2013-7-12,84,66,52,62,57,51,97,75,45,30.16,30.07,1,0,6,0.00
2013-7-13,87,72,58,64,58,51,95,66,31,30.19,30.13,2,0,8,0.00
2013-7-14,91,77,63,71,66,61,95,73,46,30.24,30.19,1,0,6,0.00
2013-7-15,93,78,69,76,72,67,96,82,53,30.27,30.19,1,0,4,0.48
2013-7-16,93,81,72,77,74,71,100,80,56,30.28,30.19,2,0,5,0.00
2013-7-17,94,83,72,78,73,70,94,74,53,30.24,30.10,2,1,5,0.00
2013-7-18,95,83,72,75,73,70,93,74,52,30.13,29.90,3,1,6,0.00
2013-7-19,92,84,75,74,71,65,90,69,47,29.92,29.66,7,3,15,0.00
2013-7-20,86,77,67,70,63,56,88,66,36,29.91,29.66,3,1,6,0.00
2013-7-21,84,70,58,62,57,53,86,65,43,30.00,29.89,1,0,5,0.00
2013-7-22,82,73,64,68,64,59,91,75,57,29.95,29.73,1,0,5,0.01
2013-7-23,79,69,60,72,63,50,96,83,60,29.88,29.63,2,1,7,0.44
2013-7-24,72,62,50,53,50,46,88,67,45,30.05,29.86,2,1,6,0.00
2013-7-25,78,64,49,56,51,48,97,69,38,30.11,30.04,1,0,5,0.00
2013-7-26,81,68,58,62,58,54,92,72,47,30.09,29.89,2,0,5,0.05
2013-7-27,79,65,55,64,60,48,95,85,58,29.90,29.70,4,1,9,0.21
2013-7-28,64,56,49,56,51,46,94,85,65,29.96,29.81,3,1,10,0.15
2013-7-29,68,60,54,58,55,52,94,83,64,30.17,29.94,3,1,6,0.04
2013-7-30,79,65,51,59,56,50,97,74,46,30.23,30.10,1,0,6,0.00
2013-7-31,66,64,61,64,62,58,97,94,88,30.12,29.88,1,0,4,0.56
2013-8-1,76,66,60,64,61,55,97,84,53,29.90,29.86,2,1,5,0.11
2013-8-2,74,64,55,64,58,53,93,83,62,29.91,29.81,3,1,7,0.01
2013-8-3,77,66,56,62,56,52,96,72,45,30.05,29.88,3,1,5,0.00
2013-8-4,74,62,53,56,53,50,91,74,49,30.16,30.04,2,1,5,0.00
2013-8-5,70,61,53,58,54,50,92,77,54,30.11,29.95,2,0,3,0.00
2013-8-6,76,68,61,69,63,57,95,86,72,29.96,29.86,1,0,3,0.09
2013-8-7,82,71,62,71,66,60,97,85,62,29.90,29.78,5,1,9,0.44
2013-8-8,77,68,60,66,59,54,94,76,48,30.01,29.89,1,0,6,0.00
2013-8-9,80,68,54,61,57,52,97,71,43,29.99,29.92,3,1,7,0.00
2013-8-10,77,66,55,60,56,53,95,71,46,30.13,29.98,1,0,5,0.00
2013-8-11,76,67,61,61,58,56,88,74,50,30.11,30.02,2,0,6,0.00
2013-8-12,70,65,61,66,62,57,97,91,84,30.05,29.83,2,0,6,0.05
2013-8-13,67,60,52,63,50,44,97,72,46,30.06,29.84,4,1,10,0.00
2013-8-14,69,57,46,53,48,44,92,74,49,30.17,30.05,2,1,4,0.00
2013-8-15,73,60,48,57,51,47,94,75,46,30.17,30.07,2,0,6,0.00
2013-8-16,79,64,50,57,53,48,95,70,40,30.19,30.10,2,0,4,0.00
2013-8-17,82,66,52,60,54,45,96,69,29,30.26,30.17,2,0,6,0.00
2013-8-18,82,67,53,62,56,52,96,72,42,30.22,30.09,2,0,4,0.00
2013-8-19,82,68,56,62,58,53,95,72,38,30.11,30.01,2,0,6,0.00
2013-8-20,85,71,59,66,62,57,92,74,47,30.11,30.04,3,1,8,0.00
2013-8-21,87,75,65,69,65,62,91,74,51,30.09,29.95,3,1,7,0.00
2013-8-22,81,74,66,68,66,63,95,78,55,30.04,29.88,4,1,7,0.10
2013-8-23,81,67,55,62,57,54,96,72,43,30.20,30.01,2,0,6,0.00
2013-8-24,83,67,53,60,56,52,97,70,39,30.31,30.19,2,0,5,0.00
2013-8-25,86,72,59,67,62,57,95,72,48,30.27,30.11,3,1,9,0.00
2013-8-26,86,76,67,71,66,62,87,74,59,30.12,29.94,3,1,7,0.00
2013-8-27,81,74,69,75,71,68,97,90,79,29.97,29.79,5,0,8,1.23
2013-8-28,80,73,66,73,70,65,97,90,71,30.00,29.77,2,0,5,0.00
2013-8-29,87,72,62,70,66,61,100,84,54,30.07,29.97,1,0,3,0.01
2013-8-30,85,76,67,72,69,64,96,81,58,29.98,29.70,4,1,9,0.04
2013-8-31,78,71,65,71,66,62,96,84,66,29.83,29.74,1,0,5,0.00
2013-9-1,76,68,62,70,65,60,97,92,81,29.84,29.70,1,0,7,0.13
2013-9-2,71,65,57,68,59,52,97,83,65,29.92,29.71,4,1,7,0.00
2013-9-3,72,62,56,56,53,51,85,73,48,30.00,29.91,3,1,8,0.00
2013-9-4,79,66,53,64,58,52,95,78,53,30.07,29.97,4,2,9,0.00
2013-9-5,70,58,48,60,48,42,92,71,42,30.25,30.07,1,1,5,0.00
2013-9-6,74,59,46,56,50,44,96,74,43,30.28,30.06,2,0,5,0.00
2013-9-7,76,67,58,69,61,50,94,81,68,30.06,29.87,2,1,5,0.08
2013-9-8,74,66,54,66,57,49,95,73,46,30.09,29.91,3,1,9,0.00
2013-9-9,76,64,50,70,60,48,93,87,75,30.06,29.86,1,0,5,0.04
2013-9-10,93,80,70,71,68,63,91,70,41,29.96,29.84,4,2,10,0.00
2013-9-11,88,77,69,71,67,64,86,72,51,29.98,29.90,3,1,7,0.00
2013-9-12,76,66,55,64,58,44,96,78,46,29.96,29.83,3,1,9,0.14
2013-9-13,56,51,42,46,43,38,88,74,52,30.15,29.95,2,1,8,0.00
2013-9-14,66,52,39,46,41,37,94,70,37,30.20,30.09,2,1,5,0.00
2013-9-15,60,54,49,54,48,44,96,83,65,30.13,30.06,1,0,3,0.11
2013-9-16,60,53,42,53,47,40,96,83,57,30.40,30.12,2,1,6,0.03
2013-9-17,66,50,35,51,43,34,97,80,54,30.43,30.23,2,0,8,0.00
2013-9-18,75,59,44,56,50,42,97,76,48,30.24,30.02,2,0,5,0.00
2013-9-19,79,68,59,68,62,55,93,82,67,30.03,29.86,2,0,6,0.00
2013-9-20,76,70,66,70,66,64,95,88,75,29.88,29.70,4,1,9,0.02
2013-9-21,66,60,52,64,53,43,96,78,51,29.87,29.66,4,2,8,0.00
2013-9-22,57,50,44,44,41,39,89,71,53,30.10,29.87,1,0,7,0.00
2013-9-23,58,48,37,44,41,36,97,80,58,30.21,30.09,2,0,7,0.00
2013-9-24,66,52,40,49,44,38,96,77,49,30.17,30.01,2,0,6,0.00
2013-9-25,70,54,40,53,46,39,97,78,40,30.03,29.96,2,0,6,0.00
2013-9-26,75,56,42,54,47,41,97,77,38,30.14,30.01,1,0,5,0.00
2013-9-27,76,59,44,55,50,42,97,75,42,30.23,30.14,2,0,7,0.00
2013-9-28,76,62,50,60,54,49,100,77,48,30.19,29.99,2,0,6,0.00
2013-9-29,62,59,54,59,56,53,97,88,74,29.99,29.92,1,0,4,0.20
2013-9-30,68,58,53,55,52,50,100,82,53,30.01,29.91,3,0,5,0.01
2013-10-1,73,61,51,62,56,50,97,86,67,29.99,29.89,4,1,11,0.00
2013-10-2,75,64,54,60,49,37,96,66,26,30.08,29.91,2,1,4,0.00
2013-10-3,80,65,51,66,58,45,92,78,61,30.06,29.89,3,1,8,0.00
2013-10-4,77,69,64,67,64,62,96,86,69,30.01,29.89,2,0,5,0.02
2013-10-5,72,66,62,68,64,61,97,92,84,30.01,29.82,1,0,5,0.38
2013-10-6,70,64,52,67,61,51,96,92,80,29.83,29.63,3,1,9,0.34
2013-10-7,58,50,45,52,46,42,97,85,62,30.10,29.66,4,2,10,0.06
2013-10-8,66,52,41,48,44,40,97,78,48,30.28,30.09,2,0,6,0.00
2013-10-9,69,54,44,51,46,42,97,76,47,30.32,30.21,2,0,6,0.00
2013-10-10,69,54,42,54,45,41,97,75,40,30.24,30.13,2,0,7,0.00
2013-10-11,70,54,40,51,44,38,97,71,37,30.16,30.07,2,0,7,0.00
2013-10-12,75,60,46,61,52,45,96,78,52,30.10,30.01,2,0,6,0.00
2013-10-13,64,57,47,58,46,39,89,69,42,30.35,30.06,3,1,8,0.00
2013-10-14,60,48,38,44,40,37,97,76,44,30.43,30.29,2,0,6,0.00
2013-10-15,64,52,39,59,49,38,96,89,72,30.29,29.81,3,1,8,0.16
2013-10-16,60,53,50,59,49,45,95,87,73,29.88,29.78,5,2,10,0.00
2013-10-17,51,48,44,50,47,42,97,95,92,29.88,29.74,3,1,7,0.42
2013-10-18,60,48,41,45,41,38,97,79,44,29.90,29.82,5,2,11,0.00
2013-10-19,49,44,38,42,40,36,95,87,59,29.90,29.72,4,1,7,0.18
2013-10-20,54,46,39,44,39,36,94,78,53,29.91,29.79,4,1,9,0.02
2013-10-21,55,50,41,48,43,35,92,78,64,29.84,29.79,6,3,11,0.09
2013-10-22,46,40,32,36,30,27,84,69,52,29.91,29.83,5,2,11,0.01
2013-10-23,44,38,32,34,31,25,92,77,47,29.94,29.84,4,1,11,0.00
2013-10-24,44,35,30,33,30,28,95,81,61,30.18,29.93,4,2,11,0.00
2013-10-25,44,35,30,33,30,27,95,83,53,30.33,30.18,5,2,10,0.00
2013-10-26,50,42,36,40,32,27,93,70,54,30.09,29.74,6,3,15,0.14
2013-10-27,37,34,31,32,30,28,91,87,79,30.07,29.99,2,1,3,0.00
2013-10-28,46,39,33,37,32,29,87,76,65,30.42,30.03,2,1,9,0.00
2013-10-29,45,40,36,35,32,29,79,72,65,30.47,30.28,2,1,6,0.00
2013-10-30,62,46,32,48,39,31,97,79,56,30.28,29.98,1,0,5,0.00
2013-10-31,60,58,52,59,56,48,97,95,80,29.96,29.10,3,2,10,1.15
2013-11-1,60,48,44,58,43,40,94,84,73,29.65,29.06,10,5,23,0.06
2013-11-2,44,41,33,43,39,31,96,93,85,30.13,29.65,2,1,8,0.18
2013-11-3,43,36,28,35,31,27,97,84,68,30.47,30.12,3,1,7,0.01
2013-11-4,48,40,30,36,30,25,90,69,41,30.48,30.29,4,2,11,0.00
2013-11-5,54,49,45,45,41,34,79,74,69,30.34,30.29,3,2,6,0.00
2013-11-6,54,51,40,52,46,37,94,84,62,30.15,29.74,7,4,16,0.29
2013-11-7,42,38,34,37,31,26,91,76,55,30.14,29.98,6,4,12,0.01
2013-11-8,43,35,28,29,26,24,89,72,48,30.29,30.12,4,2,10,0.00
2013-11-9,52,45,35,41,34,28,77,67,57,30.19,29.78,9,5,20,0.00
2013-11-10,46,41,34,35,31,28,79,68,55,30.27,29.89,8,4,18,0.00
2013-11-11,41,35,26,37,30,21,94,83,71,30.33,30.04,5,2,11,0.14
2013-11-12,31,24,21,22,18,16,88,77,56,30.58,30.33,5,2,11,0.00
2013-11-13,38,28,18,24,18,13,89,66,40,30.57,30.15,7,4,16,0.00
2013-11-14,50,39,31,28,22,18,61,51,41,30.16,29.94,7,4,15,0.00
2013-11-15,51,44,37,29,26,23,64,50,38,30.03,29.97,4,3,11,0.00
2013-11-16,55,48,35,52,42,29,92,81,65,30.08,29.76,7,4,16,0.02
2013-11-17,62,58,54,58,55,51,93,90,85,29.78,29.21,8,5,20,0.20
2013-12-23,25,22,17,22,20,14,94,90,87,30.32,30.24,0,0,0,0.00
2013-12-24,17,10,5,15,7,2,92,88,81,30.57,30.32,0,0,0,0.00
2013-12-25,22,17,8,20,15,6,93,89,86,30.54,30.12,0,0,0,0.00
2013-12-26,24,22,21,23,20,16,94,89,81,30.28,30.04,0,0,0,0.00